This is the latest recevied weather packets stored in our database for station/object IZ8NVY-11. If no packets are shown the sender has not sent any weather packets the latest 10 day(s).
| Time | Temp. | Humidity | Pressure | Rain* | Wind** | Luminosity | Snow |
|---|---|---|---|---|---|---|---|
| 1778074494 | 23.89° C | 44% | 882.2 hPa | - | - | - | - |
| 1778070893 | 22.78° C | 45% | 882.3 hPa | - | - | - | - |
| 1778067292 | 22.78° C | 49% | 882.4 hPa | - | - | - | - |
| 1778063691 | 22.22° C | 50% | 882.3 hPa | - | - | - | - |
| 1778060090 | 19.44° C | 56% | 882.4 hPa | - | - | - | - |
| 1778056490 | 17.22° C | 60% | 882.2 hPa | - | - | - | - |
| 1778052889 | 16.67° C | 59% | 882.2 hPa | - | - | - | - |
| 1778049288 | 15.56° C | 60% | 882.2 hPa | - | - | - | - |
| 1778045695 | 14.44° C | 59% | 882.2 hPa | - | - | - | - |
| 1778042087 | 16.11° C | 56% | 881.9 hPa | - | - | - | - |
| 1778038486 | 15.56° C | 57% | 881.9 hPa | - | - | - | - |
| 1778034885 | 15.56° C | 58% | 882.1 hPa | - | - | - | - |
| 1778031284 | 15.56° C | 55% | 882.3 hPa | - | - | - | - |
| 1778027684 | 15° C | 54% | 882.2 hPa | - | - | - | - |
| 1778024083 | 14.44° C | 52% | 882.4 hPa | - | - | - | - |
| 1778020482 | 15° C | 50% | 882.8 hPa | - | - | - | - |
| 1778016881 | 14.44° C | 50% | 883.4 hPa | - | - | - | - |
| 1778013281 | 14.44° C | 49% | 883.3 hPa | - | - | - | - |
| 1778009680 | 15° C | 47% | 883.5 hPa | - | - | - | - |
| 1778006079 | 15° C | 46% | 883.1 hPa | - | - | - | - |
| 1778002478 | 15.56° C | 44% | 883.1 hPa | - | - | - | - |
| 1777998878 | 16.11° C | 40% | 883.4 hPa | - | - | - | - |
| 1777995277 | 16.11° C | 39% | 883.9 hPa | - | - | - | - |
| 1777991676 | 17.78° C | 38% | 884 hPa | - | - | - | - |
| 1777988076 | 18.89° C | 36% | 884.2 hPa | - | - | - | - |
* Rain since midnight (hover to see other rain measurements)
** Current wind speed in m/s (hover to see current wind gust speed)